createdAt,value
2019-01-20T00:00:47.833Z,-2.40
2019-01-20T00:03:17.758Z,-2.40
2019-01-20T00:05:47.122Z,-2.40
2019-01-20T00:08:16.500Z,-2.40
2019-01-20T00:10:45.881Z,-2.50
2019-01-20T00:13:15.247Z,-2.50
2019-01-20T00:15:46.291Z,-2.50
2019-01-20T00:18:15.666Z,-2.50
2019-01-20T00:20:45.042Z,-2.60
2019-01-20T00:23:14.438Z,-2.60
2019-01-20T00:25:43.814Z,-2.60
2019-01-20T00:28:13.184Z,-2.60
2019-01-20T00:30:42.587Z,-2.60
2019-01-20T00:33:11.947Z,-2.70
2019-01-20T00:35:41.320Z,-2.70
2019-01-20T00:38:10.712Z,-2.70
2019-01-20T00:40:40.068Z,-2.70
2019-01-20T00:43:09.444Z,-2.70
2019-01-20T00:45:39.161Z,-2.70
2019-01-20T00:48:08.538Z,-2.80
2019-01-20T00:50:37.903Z,-2.80
2019-01-20T00:53:07.363Z,-2.80
2019-01-20T00:55:36.724Z,-2.80
2019-01-20T00:58:06.159Z,-2.90
2019-01-20T01:00:35.659Z,-2.90
2019-01-20T01:03:05.168Z,-2.90
2019-01-20T01:05:34.905Z,-2.90
2019-01-20T01:08:04.743Z,-2.90
2019-01-20T01:10:34.111Z,-3.00
2019-01-20T01:13:04.638Z,-3.00
2019-01-20T01:15:34.183Z,-3.00
2019-01-20T01:18:03.637Z,-3.00
2019-01-20T01:20:33.017Z,-3.10
2019-01-20T01:23:02.400Z,-3.00
2019-01-20T01:25:31.773Z,-3.10
2019-01-20T01:28:01.135Z,-3.10
2019-01-20T01:30:30.530Z,-3.10
2019-01-20T01:32:59.956Z,-3.10
2019-01-20T01:35:29.327Z,-3.10
2019-01-20T01:37:59.842Z,-3.10
2019-01-20T01:40:29.207Z,-3.20
2019-01-20T01:42:58.582Z,-3.20
2019-01-20T01:45:27.997Z,-3.20
2019-01-20T01:47:57.354Z,-3.20
2019-01-20T01:50:26.754Z,-3.20
2019-01-20T01:52:56.416Z,-3.30
2019-01-20T02:14:46.649Z,-6.40
2019-01-20T02:17:16.984Z,-6.10
2019-01-20T02:19:46.334Z,-5.80
2019-01-20T02:22:15.719Z,-5.50
2019-01-20T02:24:45.072Z,-5.20
2019-01-20T02:27:14.495Z,-5.00
2019-01-20T02:29:43.876Z,-4.90
2019-01-20T02:32:13.229Z,-4.70
2019-01-20T02:34:42.600Z,-4.60
2019-01-20T02:37:12.377Z,-4.50
2019-01-20T02:39:41.738Z,-4.40
2019-01-20T02:42:11.108Z,-4.40
2019-01-20T02:44:40.485Z,-4.30
2019-01-20T02:47:09.837Z,-4.30
2019-01-20T02:49:39.234Z,-4.20
2019-01-20T02:52:08.577Z,-4.20
2019-01-20T02:54:37.941Z,-4.20
2019-01-20T02:57:07.314Z,-4.20
2019-01-20T02:59:37.104Z,-4.10
2019-01-20T03:02:06.631Z,-4.10
2019-01-20T03:04:35.977Z,-4.10
2019-01-20T03:07:05.558Z,-4.10
2019-01-20T03:09:34.920Z,-4.10
2019-01-20T03:12:04.450Z,-4.00
2019-01-20T03:14:33.829Z,-4.10
2019-01-20T03:17:04.702Z,-4.10
2019-01-20T03:19:34.124Z,-4.10
2019-01-20T03:22:03.990Z,-4.10
2019-01-20T03:24:33.340Z,-4.00
2019-01-20T03:27:02.773Z,-4.10
2019-01-20T03:29:32.165Z,-4.00
2019-01-20T03:32:01.534Z,-4.10
2019-01-20T03:34:30.906Z,-4.00
2019-01-20T03:37:00.288Z,-4.10
2019-01-20T03:39:29.672Z,-4.10
2019-01-20T03:41:59.061Z,-4.10
2019-01-20T03:44:28.476Z,-4.10
2019-01-20T03:46:57.859Z,-4.10
2019-01-20T03:49:27.257Z,-4.10
2019-01-20T03:51:56.631Z,-4.10
2019-01-20T03:54:26.002Z,-4.10
2019-01-20T03:56:55.361Z,-4.10
2019-01-20T03:59:24.804Z,-4.20
2019-01-20T04:01:54.186Z,-4.10
2019-01-20T04:04:23.555Z,-4.20
2019-01-20T04:06:53.314Z,-4.20
2019-01-20T04:09:22.675Z,-4.20
2019-01-20T04:11:52.049Z,-4.20
2019-01-20T04:14:21.439Z,-4.20
2019-01-20T04:16:50.814Z,-4.20
2019-01-20T04:19:20.736Z,-4.20
2019-01-20T04:21:50.122Z,-4.30
2019-01-20T04:24:19.486Z,-4.30
2019-01-20T04:26:48.845Z,-4.30
2019-01-20T04:29:18.978Z,-4.30
2019-01-20T04:31:48.335Z,-4.30
2019-01-20T04:34:17.708Z,-4.30
2019-01-20T04:36:47.095Z,-4.30
2019-01-20T04:39:16.482Z,-4.30
2019-01-20T04:41:45.864Z,-4.30
2019-01-20T04:44:15.293Z,-4.40
2019-01-20T04:46:44.657Z,-4.40
2019-01-20T04:49:14.026Z,-4.40
2019-01-20T04:51:43.752Z,-4.40
2019-01-20T04:54:13.682Z,-4.40
2019-01-20T04:56:43.066Z,-4.40
2019-01-20T04:59:12.443Z,-4.40
2019-01-20T05:01:41.820Z,-4.50
2019-01-20T05:04:11.177Z,-4.50
2019-01-20T05:06:40.573Z,-4.50
2019-01-20T05:09:09.951Z,-4.50
2019-01-20T05:11:39.324Z,-4.50
2019-01-20T05:14:09.391Z,-4.50
2019-01-20T05:16:38.752Z,-4.50
2019-01-20T05:19:09.744Z,-4.50
2019-01-20T05:21:40.241Z,-4.50
2019-01-20T05:24:09.602Z,-4.50
2019-01-20T05:26:38.961Z,-4.50
2019-01-20T05:29:08.354Z,-4.60
2019-01-20T05:31:37.745Z,-4.60
2019-01-20T05:34:07.098Z,-4.60
2019-01-20T05:36:37.204Z,-4.60
2019-01-20T05:39:08.095Z,-4.60
2019-01-20T05:41:37.477Z,-4.60
2019-01-20T05:44:06.848Z,-4.70
2019-01-20T05:46:36.225Z,-4.70
2019-01-20T05:49:05.648Z,-4.70
2019-01-20T05:51:35.030Z,-4.70
2019-01-20T05:54:04.482Z,-4.70
2019-01-20T05:56:33.865Z,-4.70
2019-01-20T05:59:03.267Z,-4.70
2019-01-20T06:01:32.635Z,-4.70
2019-01-20T06:04:02.001Z,-4.70
2019-01-20T06:06:33.980Z,-4.70
2019-01-20T06:09:02.528Z,-4.80
2019-01-20T06:11:31.892Z,-4.80
2019-01-20T06:14:01.277Z,-4.80
2019-01-20T06:16:30.652Z,-4.80
2019-01-20T06:19:00.067Z,-4.80
2019-01-20T06:21:29.898Z,-4.80
2019-01-20T06:24:02.845Z,-4.80
2019-01-20T06:26:32.216Z,-4.80
2019-01-20T06:29:01.594Z,-4.90
2019-01-20T06:31:30.964Z,-4.90
2019-01-20T06:34:00.336Z,-4.90
2019-01-20T06:36:29.727Z,-4.90
2019-01-20T06:38:59.178Z,-4.90
2019-01-20T06:41:28.574Z,-4.90
2019-01-20T06:43:58.318Z,-4.90
2019-01-20T06:46:27.708Z,-4.90
2019-01-20T06:48:57.134Z,-4.90
2019-01-20T06:51:26.527Z,-4.90
2019-01-20T06:53:55.894Z,-4.90
2019-01-20T06:56:25.274Z,-5.00
2019-01-20T06:58:54.677Z,-5.00
2019-01-20T07:01:24.056Z,-5.00
2019-01-20T07:03:53.426Z,-5.00
2019-01-20T07:06:23.301Z,-5.00
2019-01-20T07:08:52.737Z,-5.00
2019-01-20T07:11:22.104Z,-5.00
2019-01-20T07:13:51.496Z,-5.00
2019-01-20T07:16:20.929Z,-5.00
2019-01-20T07:18:50.280Z,-5.10
2019-01-20T07:21:19.657Z,-5.10
2019-01-20T07:23:49.013Z,-5.10
2019-01-20T07:26:19.561Z,-5.10
2019-01-20T07:28:49.269Z,-5.10
2019-01-20T07:31:18.609Z,-5.10
2019-01-20T07:33:47.968Z,-5.10
2019-01-20T07:36:17.350Z,-5.10
2019-01-20T07:38:46.710Z,-5.10
2019-01-20T07:41:16.076Z,-5.10
2019-01-20T07:43:45.454Z,-5.10
2019-01-20T07:46:14.812Z,-5.10
2019-01-20T07:48:44.172Z,-5.10
2019-01-20T07:51:13.575Z,-5.10
2019-01-20T07:53:42.927Z,-5.10
2019-01-20T07:56:12.291Z,-5.10
2019-01-20T07:58:41.663Z,-5.10
2019-01-20T08:01:11.044Z,-5.10
2019-01-20T08:03:40.418Z,-5.10
2019-01-20T08:06:09.798Z,-5.10
2019-01-20T08:08:39.181Z,-5.00
2019-01-20T08:11:08.551Z,-5.00
2019-01-20T08:13:37.930Z,-5.00
2019-01-20T08:16:07.380Z,-5.00
2019-01-20T08:18:36.753Z,-5.00
2019-01-20T08:21:06.147Z,-5.00
2019-01-20T08:23:35.478Z,-5.00
2019-01-20T08:26:04.982Z,-5.00
2019-01-20T08:28:34.969Z,-5.00
2019-01-20T08:31:04.496Z,-5.00
2019-01-20T08:33:33.880Z,-5.00
2019-01-20T08:36:03.775Z,-4.90
2019-01-20T08:38:34.994Z,-4.90
2019-01-20T08:41:04.523Z,-4.90
2019-01-20T08:43:33.924Z,-4.90
2019-01-20T08:46:16.649Z,-4.90
2019-01-20T08:48:46.037Z,-4.90
2019-01-20T08:51:15.542Z,-4.90
2019-01-20T08:53:44.899Z,-4.90
2019-01-20T08:56:14.914Z,-4.90
2019-01-20T08:58:44.282Z,-4.90
2019-01-20T09:01:13.663Z,-4.80
2019-01-20T09:03:43.046Z,-4.80
2019-01-20T09:06:12.494Z,-4.80
2019-01-20T09:08:42.008Z,-4.70
2019-01-20T09:11:11.544Z,-4.70
2019-01-20T09:13:41.285Z,-4.70
2019-01-20T09:16:10.803Z,-4.70
2019-01-20T09:18:40.199Z,-4.70
2019-01-20T09:21:09.572Z,-4.70
2019-01-20T09:23:38.996Z,-4.60
2019-01-20T09:26:09.318Z,-4.60
2019-01-20T09:28:38.685Z,-4.50
2019-01-20T09:31:08.065Z,-4.50
2019-01-20T09:33:37.553Z,-4.50
2019-01-20T09:36:06.981Z,-4.50
2019-01-20T09:38:36.383Z,-4.40
2019-01-20T09:41:05.953Z,-4.40
2019-01-20T09:43:35.339Z,-4.40
2019-01-20T09:46:04.826Z,-4.30
2019-01-20T09:48:34.167Z,-4.30
2019-01-20T09:51:03.562Z,-4.30
2019-01-20T09:53:32.913Z,-4.20
2019-01-20T09:56:02.322Z,-4.20
2019-01-20T09:58:31.668Z,-4.10
2019-01-20T10:01:01.066Z,-4.10
2019-01-20T10:03:30.557Z,-4.00
2019-01-20T10:05:59.949Z,-4.00
2019-01-20T10:08:29.325Z,-3.90
2019-01-20T10:10:58.685Z,-3.80
2019-01-20T10:13:28.118Z,-3.80
2019-01-20T10:15:57.566Z,-3.70
2019-01-20T10:18:26.954Z,-3.60
2019-01-20T10:20:56.324Z,-3.50
2019-01-20T10:23:25.705Z,-3.40
2019-01-20T10:25:55.401Z,-3.20
2019-01-20T10:28:24.840Z,-3.10
2019-01-20T10:30:54.612Z,-3.00
2019-01-20T10:33:23.991Z,-2.80
2019-01-20T10:35:55.051Z,-2.70
2019-01-20T10:38:24.395Z,-2.50
2019-01-20T10:40:53.759Z,-2.40
2019-01-20T10:43:23.123Z,-2.20
2019-01-20T10:45:52.518Z,-2.10
2019-01-20T10:48:22.244Z,-1.90
2019-01-20T10:50:51.635Z,-1.80
2019-01-20T10:53:20.990Z,-1.60
2019-01-20T10:55:50.373Z,-1.50
2019-01-20T10:58:19.745Z,-1.30
2019-01-20T11:00:49.111Z,-1.10
2019-01-20T11:03:18.534Z,-1.00
2019-01-20T11:05:47.887Z,-0.80
2019-01-20T11:08:17.463Z,-0.70
2019-01-20T11:10:47.192Z,-0.50
2019-01-20T11:13:16.556Z,-0.30
2019-01-20T11:15:45.920Z,-0.20
2019-01-20T11:18:15.298Z,-0.10
2019-01-20T11:20:44.662Z,0.10
2019-01-20T11:23:14.192Z,0.20
2019-01-20T11:25:43.587Z,0.40
2019-01-20T11:28:12.964Z,0.50
2019-01-20T11:30:42.389Z,0.60
2019-01-20T11:33:12.221Z,0.80
2019-01-20T11:35:41.601Z,0.90
2019-01-20T11:38:10.962Z,1.00
2019-01-20T11:40:40.344Z,1.10
2019-01-20T11:43:09.730Z,1.30
2019-01-20T11:45:39.165Z,1.40
2019-01-20T11:48:08.679Z,1.50
2019-01-20T11:50:38.050Z,1.60
2019-01-20T11:53:07.547Z,1.70
2019-01-20T11:55:36.961Z,1.80
2019-01-20T11:58:06.401Z,1.90
2019-01-20T12:00:36.771Z,2.00
2019-01-20T12:03:06.481Z,2.10
2019-01-20T12:05:36.511Z,2.30
2019-01-20T12:08:06.484Z,2.30
2019-01-20T12:10:36.158Z,2.40
2019-01-20T12:13:07.221Z,2.50
2019-01-20T12:15:36.902Z,2.60
2019-01-20T12:18:06.762Z,2.70
2019-01-20T12:20:36.204Z,2.80
2019-01-20T12:23:06.093Z,2.90
2019-01-20T12:25:35.525Z,3.00
2019-01-20T12:28:05.132Z,3.10
2019-01-20T12:30:38.363Z,3.20
2019-01-20T12:33:08.360Z,3.20
2019-01-20T12:35:38.897Z,3.30
2019-01-20T12:38:08.261Z,3.40
2019-01-20T12:40:44.399Z,3.40
2019-01-20T12:43:13.925Z,3.50
2019-01-20T12:45:43.344Z,3.60
2019-01-20T12:48:13.138Z,3.60
2019-01-20T12:50:42.486Z,3.70
2019-01-20T12:53:11.930Z,3.70
2019-01-20T12:55:41.302Z,3.80
2019-01-20T12:58:11.276Z,3.90
2019-01-20T13:00:40.635Z,3.90
2019-01-20T13:03:10.054Z,4.00
2019-01-20T13:05:39.475Z,4.00
2019-01-20T13:08:08.793Z,4.10
2019-01-20T13:10:38.884Z,4.10
2019-01-20T13:13:08.251Z,4.10
2019-01-20T13:15:37.617Z,4.20
2019-01-20T13:18:07.054Z,4.20
2019-01-20T13:20:36.442Z,4.20
2019-01-20T13:23:06.259Z,4.30
2019-01-20T13:25:35.627Z,4.30
2019-01-20T13:28:05.075Z,4.30
2019-01-20T13:30:34.429Z,4.30
2019-01-20T13:33:03.913Z,4.30
2019-01-20T13:35:33.265Z,4.30
2019-01-20T13:38:07.388Z,4.40
2019-01-20T13:40:47.354Z,4.40
2019-01-20T13:43:16.825Z,4.40
2019-01-20T13:45:46.274Z,4.40
2019-01-20T13:48:15.671Z,4.40
2019-01-20T13:50:45.116Z,4.40
2019-01-20T13:53:14.486Z,4.40
2019-01-20T13:55:43.933Z,4.40
2019-01-20T13:58:13.319Z,4.40
2019-01-20T14:00:42.714Z,4.40
2019-01-20T14:03:12.342Z,4.40
2019-01-20T14:05:41.691Z,4.40
2019-01-20T14:08:11.041Z,4.40
2019-01-20T14:10:40.450Z,4.40
2019-01-20T14:13:09.813Z,4.40
2019-01-20T14:15:39.183Z,4.40
2019-01-20T14:18:08.552Z,4.30
2019-01-20T14:20:37.891Z,4.30
2019-01-20T14:23:07.594Z,4.30
2019-01-20T14:25:36.964Z,4.20
2019-01-20T14:28:06.318Z,4.20
2019-01-20T14:30:35.659Z,4.10
2019-01-20T14:33:05.062Z,4.10
2019-01-20T14:35:34.405Z,4.00
2019-01-20T14:38:03.825Z,3.90
2019-01-20T14:40:33.560Z,3.90
2019-01-20T14:43:03.177Z,3.80
2019-01-20T14:45:32.526Z,3.70
2019-01-20T14:48:01.905Z,3.70
2019-01-20T14:50:31.317Z,3.60
2019-01-20T14:53:00.671Z,3.60
2019-01-20T14:55:30.436Z,3.50
2019-01-20T14:57:59.773Z,3.40
2019-01-20T15:00:33.394Z,3.40
2019-01-20T15:03:02.914Z,3.30
2019-01-20T15:05:32.327Z,3.30
2019-01-20T15:08:01.883Z,3.20
2019-01-20T15:10:32.088Z,3.20
2019-01-20T15:13:01.625Z,3.10
2019-01-20T15:15:35.349Z,3.10
2019-01-20T15:18:06.135Z,3.00
2019-01-20T15:20:35.633Z,2.90
2019-01-20T15:23:05.353Z,2.90
2019-01-20T15:25:35.403Z,2.80
2019-01-20T15:28:05.286Z,2.70
2019-01-20T15:30:35.269Z,2.70
2019-01-20T15:33:06.774Z,2.60
2019-01-20T15:35:36.377Z,2.60
2019-01-20T15:38:06.594Z,2.50
2019-01-20T15:40:36.333Z,2.50
2019-01-20T15:43:06.575Z,2.40
2019-01-20T15:45:35.947Z,2.30
2019-01-20T15:48:05.730Z,2.30
2019-01-20T15:50:35.151Z,2.20
2019-01-20T15:53:04.868Z,2.20
2019-01-20T15:55:34.315Z,2.10
2019-01-20T15:58:03.750Z,2.10
2019-01-20T16:00:33.577Z,2.00
2019-01-20T16:03:03.424Z,1.90
2019-01-20T16:05:32.844Z,1.90
2019-01-20T16:08:02.179Z,1.80
2019-01-20T16:10:31.563Z,1.80
2019-01-20T16:13:00.909Z,1.70
2019-01-20T16:15:33.806Z,1.70
2019-01-20T16:18:03.267Z,1.60
2019-01-20T16:20:33.158Z,1.50
2019-01-20T16:23:02.503Z,1.50
2019-01-20T16:25:34.987Z,1.40
2019-01-20T16:28:04.788Z,1.40
2019-01-20T16:30:37.043Z,1.30
2019-01-20T16:33:06.888Z,1.30
2019-01-20T16:35:36.335Z,1.20
2019-01-20T16:38:06.025Z,1.10
2019-01-20T16:40:35.395Z,1.10
2019-01-20T16:43:05.331Z,1.10
2019-01-20T16:45:41.966Z,1.00
2019-01-20T16:48:10.837Z,1.00
2019-01-20T16:50:40.341Z,0.90
2019-01-20T16:53:09.771Z,0.90
2019-01-20T16:55:39.130Z,0.80
2019-01-20T16:58:08.494Z,0.80
2019-01-20T17:00:40.756Z,0.70
2019-01-20T17:03:10.262Z,0.70
2019-01-20T17:05:39.686Z,0.70
2019-01-20T17:08:09.237Z,0.60
2019-01-20T17:10:40.917Z,0.60
2019-01-20T17:13:10.812Z,0.50
2019-01-20T17:15:42.237Z,0.50
2019-01-20T17:18:12.930Z,0.40
2019-01-20T17:20:42.477Z,0.40
2019-01-20T17:23:11.952Z,0.40
2019-01-20T17:25:41.262Z,0.30
2019-01-20T17:28:10.627Z,0.30
2019-01-20T17:30:40.595Z,0.20
2019-01-20T17:33:11.594Z,0.20
2019-01-20T17:35:40.969Z,0.20
2019-01-20T17:38:10.636Z,0.10
2019-01-20T17:40:40.035Z,0.10
2019-01-20T17:43:09.429Z,0.10
2019-01-20T17:45:47.599Z,0.00
2019-01-20T17:48:13.433Z,0.00
2019-01-20T17:50:43.336Z,0.00
2019-01-20T17:53:12.925Z,-0.10
2019-01-20T17:55:42.312Z,-0.10
2019-01-20T17:58:11.730Z,-0.20
2019-01-20T18:00:42.796Z,-0.20
2019-01-20T18:03:12.318Z,-0.20
2019-01-20T18:05:41.990Z,-0.30
2019-01-20T18:08:11.436Z,-0.30
2019-01-20T18:10:40.844Z,-0.30
2019-01-20T18:13:10.438Z,-0.40
2019-01-20T18:15:39.861Z,-0.40
2019-01-20T18:18:09.424Z,-0.40
2019-01-20T18:20:38.792Z,-0.50
2019-01-20T18:23:08.134Z,-0.50
2019-01-20T18:25:37.642Z,-0.60
2019-01-20T18:28:07.139Z,-0.60
2019-01-20T18:30:36.599Z,-0.60
2019-01-20T18:33:05.959Z,-0.60
2019-01-20T18:35:35.400Z,-0.70
2019-01-20T18:38:04.989Z,-0.70
2019-01-20T18:40:34.376Z,-0.70
2019-01-20T18:43:03.867Z,-0.80
2019-01-20T18:45:34.734Z,-0.80
2019-01-20T18:48:04.220Z,-0.80
2019-01-20T18:50:38.657Z,-0.80
2019-01-20T18:53:08.102Z,-0.90
2019-01-20T18:55:37.663Z,-0.90
2019-01-20T18:58:07.379Z,-0.90
2019-01-20T19:00:41.339Z,-1.00
2019-01-20T19:03:10.779Z,-1.00
2019-01-20T19:05:40.281Z,-1.00
2019-01-20T19:08:09.644Z,-1.00
2019-01-20T19:10:39.781Z,-1.10
2019-01-20T19:13:09.173Z,-1.10
2019-01-20T19:15:38.534Z,-1.20
2019-01-20T19:18:07.917Z,-1.20
2019-01-20T19:20:37.317Z,-1.20
2019-01-20T19:23:06.857Z,-1.20
2019-01-20T19:25:36.337Z,-1.30
2019-01-20T19:28:06.165Z,-1.30
2019-01-20T19:30:36.470Z,-1.30
2019-01-20T19:33:06.494Z,-1.40
2019-01-20T19:35:35.865Z,-1.40
2019-01-20T19:38:05.521Z,-1.40
2019-01-20T19:40:34.942Z,-1.50
2019-01-20T19:43:04.386Z,-1.50
2019-01-20T19:45:33.821Z,-1.50
2019-01-20T19:48:03.275Z,-1.50
2019-01-20T19:50:32.711Z,-1.60
2019-01-20T19:53:02.436Z,-1.60
2019-01-20T19:55:33.471Z,-1.60
2019-01-20T19:58:02.976Z,-1.60
2019-01-20T20:00:33.298Z,-1.60
2019-01-20T20:03:02.688Z,-1.70
2019-01-20T20:05:32.258Z,-1.70
2019-01-20T20:08:01.700Z,-1.70
2019-01-20T20:10:31.146Z,-1.70
2019-01-20T20:13:00.604Z,-1.80
2019-01-20T20:15:30.124Z,-1.80
2019-01-20T20:17:59.555Z,-1.80
2019-01-20T20:20:28.981Z,-1.80
2019-01-20T20:22:58.454Z,-1.90
2019-01-20T20:25:28.017Z,-1.90
2019-01-20T20:27:57.526Z,-1.90
2019-01-20T20:30:30.438Z,-1.90
2019-01-20T20:33:00.202Z,-2.00
2019-01-20T20:35:29.567Z,-2.00
2019-01-20T20:37:58.978Z,-2.00
2019-01-20T20:40:28.364Z,-2.10
2019-01-20T20:42:58.189Z,-2.10
2019-01-20T20:45:28.201Z,-2.10
2019-01-20T20:47:57.640Z,-2.10
2019-01-20T20:50:27.026Z,-2.20
2019-01-20T20:52:56.392Z,-2.20
2019-01-20T20:55:26.777Z,-2.20
2019-01-20T20:57:56.117Z,-2.20
2019-01-20T21:00:35.847Z,-2.30
2019-01-20T21:03:09.630Z,-2.30
2019-01-20T21:05:39.076Z,-2.30
2019-01-20T21:08:08.534Z,-2.40
2019-01-20T21:10:37.895Z,-2.40
2019-01-20T21:13:07.448Z,-2.40
2019-01-20T21:15:36.814Z,-2.40
2019-01-20T21:18:06.185Z,-2.40
2019-01-20T21:20:35.560Z,-2.50
2019-01-20T21:23:11.806Z,-2.50
2019-01-20T21:25:36.047Z,-2.50
2019-01-20T21:28:05.564Z,-2.50
2019-01-20T21:30:34.930Z,-2.60
2019-01-20T21:33:04.372Z,-2.60
2019-01-20T21:35:33.746Z,-2.60
2019-01-20T21:38:06.844Z,-2.60
2019-01-20T21:40:34.400Z,-2.70
2019-01-20T21:43:03.757Z,-2.70
2019-01-20T21:45:33.220Z,-2.70
2019-01-20T21:48:02.600Z,-2.70
2019-01-20T21:50:32.471Z,-2.70
2019-01-20T21:53:01.857Z,-2.70
2019-01-20T21:55:31.221Z,-2.80
2019-01-20T21:58:01.993Z,-2.80
2019-01-20T22:00:31.657Z,-2.80
2019-01-20T22:03:01.035Z,-2.90
2019-01-20T22:05:30.397Z,-2.90
2019-01-20T22:07:59.796Z,-2.90
2019-01-20T22:10:29.222Z,-2.90
2019-01-20T22:12:58.579Z,-3.00
2019-01-20T22:15:27.969Z,-3.00
2019-01-20T22:17:57.300Z,-3.00
2019-01-20T22:20:26.676Z,-3.00
2019-01-20T22:22:56.138Z,-3.10
2019-01-20T22:25:25.494Z,-3.00
2019-01-20T22:27:54.864Z,-3.10
2019-01-20T22:30:26.161Z,-3.10
2019-01-20T22:32:55.599Z,-3.10
2019-01-20T22:35:24.981Z,-3.10
2019-01-20T22:37:54.376Z,-3.20
2019-01-20T22:40:23.740Z,-3.20
2019-01-20T22:42:53.188Z,-3.20
2019-01-20T22:45:25.561Z,-3.20
2019-01-20T22:47:54.924Z,-3.30
2019-01-20T22:50:24.586Z,-3.30
2019-01-20T22:52:53.960Z,-3.30
2019-01-20T22:55:23.343Z,-3.30
2019-01-20T22:57:52.706Z,-3.30
2019-01-20T23:00:46.377Z,-3.40
2019-01-20T23:03:15.886Z,-3.40
2019-01-20T23:05:45.381Z,-3.40
2019-01-20T23:08:14.797Z,-3.50
2019-01-20T23:10:44.125Z,-3.40
2019-01-20T23:13:13.568Z,-3.50
2019-01-20T23:15:42.913Z,-3.50
2019-01-20T23:18:12.358Z,-3.50
2019-01-20T23:20:41.720Z,-3.60
2019-01-20T23:23:11.449Z,-3.60
2019-01-20T23:25:40.814Z,-3.60
2019-01-20T23:28:10.249Z,-3.60
2019-01-20T23:30:39.723Z,-3.60
2019-01-20T23:33:09.081Z,-3.60
2019-01-20T23:35:38.466Z,-3.60
2019-01-20T23:38:07.837Z,-3.60
2019-01-20T23:40:37.193Z,-3.70
2019-01-20T23:43:06.584Z,-3.70
2019-01-20T23:45:36.534Z,-3.70
2019-01-20T23:48:06.027Z,-3.70
2019-01-20T23:50:35.386Z,-3.70
2019-01-20T23:53:05.031Z,-3.80
2019-01-20T23:55:35.445Z,-3.80
2019-01-20T23:58:05.664Z,-3.80
